sensor_id;sensor_type;location;lat;lon;timestamp;P1;durP1;ratioP1;P2;durP2;ratioP2
82176;SDS011;71758;48.714;9.584;2023-09-18T00:00:44;6.63;;;3.10;;
82176;SDS011;71758;48.714;9.584;2023-09-18T00:03:10;7.65;;;2.88;;
82176;SDS011;71758;48.714;9.584;2023-09-18T00:05:36;5.63;;;3.00;;
82176;SDS011;71758;48.714;9.584;2023-09-18T00:08:01;5.03;;;2.80;;
82176;SDS011;71758;48.714;9.584;2023-09-18T00:10:27;5.68;;;2.80;;
82176;SDS011;71758;48.714;9.584;2023-09-18T00:12:54;5.88;;;3.10;;
82176;SDS011;71758;48.714;9.584;2023-09-18T00:15:19;5.50;;;2.70;;
82176;SDS011;71758;48.714;9.584;2023-09-18T00:17:45;4.97;;;3.10;;
82176;SDS011;71758;48.714;9.584;2023-09-18T00:20:10;4.40;;;2.55;;
82176;SDS011;71758;48.714;9.584;2023-09-18T00:22:36;4.90;;;3.10;;
82176;SDS011;71758;48.714;9.584;2023-09-18T00:25:02;5.20;;;2.85;;
82176;SDS011;71758;48.714;9.584;2023-09-18T00:27:27;4.88;;;2.92;;
82176;SDS011;71758;48.714;9.584;2023-09-18T00:29:53;5.47;;;2.65;;
82176;SDS011;71758;48.714;9.584;2023-09-18T00:32:18;5.68;;;3.10;;
82176;SDS011;71758;48.714;9.584;2023-09-18T00:34:44;4.70;;;3.13;;
82176;SDS011;71758;48.714;9.584;2023-09-18T00:37:09;4.68;;;2.97;;
82176;SDS011;71758;48.714;9.584;2023-09-18T00:39:37;5.07;;;2.80;;
82176;SDS011;71758;48.714;9.584;2023-09-18T00:42:02;5.45;;;3.47;;
82176;SDS011;71758;48.714;9.584;2023-09-18T00:44:28;5.90;;;2.80;;
82176;SDS011;71758;48.714;9.584;2023-09-18T00:46:53;4.85;;;2.80;;
82176;SDS011;71758;48.714;9.584;2023-09-18T00:49:20;5.55;;;2.80;;
82176;SDS011;71758;48.714;9.584;2023-09-18T00:51:47;7.47;;;3.00;;
82176;SDS011;71758;48.714;9.584;2023-09-18T00:54:13;5.63;;;2.47;;
82176;SDS011;71758;48.714;9.584;2023-09-18T00:56:40;7.25;;;2.90;;
82176;SDS011;71758;48.714;9.584;2023-09-18T00:59:05;5.45;;;2.75;;
82176;SDS011;71758;48.714;9.584;2023-09-18T01:01:31;4.93;;;3.05;;
82176;SDS011;71758;48.714;9.584;2023-09-18T01:03:56;6.10;;;3.00;;
82176;SDS011;71758;48.714;9.584;2023-09-18T01:06:24;6.53;;;3.10;;
82176;SDS011;71758;48.714;9.584;2023-09-18T01:08:53;5.97;;;2.80;;
82176;SDS011;71758;48.714;9.584;2023-09-18T01:11:22;4.55;;;2.95;;
82176;SDS011;71758;48.714;9.584;2023-09-18T01:13:57;5.07;;;2.70;;
82176;SDS011;71758;48.714;9.584;2023-09-18T01:16:48;7.32;;;3.10;;
82176;SDS011;71758;48.714;9.584;2023-09-18T01:19:34;5.13;;;2.90;;
82176;SDS011;71758;48.714;9.584;2023-09-18T01:22:11;5.03;;;2.78;;
82176;SDS011;71758;48.714;9.584;2023-09-18T01:24:37;4.25;;;2.63;;
82176;SDS011;71758;48.714;9.584;2023-09-18T01:27:03;5.07;;;3.08;;
82176;SDS011;71758;48.714;9.584;2023-09-18T01:29:29;4.80;;;2.85;;
82176;SDS011;71758;48.714;9.584;2023-09-18T01:31:55;6.40;;;3.33;;
82176;SDS011;71758;48.714;9.584;2023-09-18T01:34:21;5.00;;;2.85;;
82176;SDS011;71758;48.714;9.584;2023-09-18T01:36:49;7.80;;;2.92;;
82176;SDS011;71758;48.714;9.584;2023-09-18T01:39:14;5.63;;;3.20;;
82176;SDS011;71758;48.714;9.584;2023-09-18T01:41:41;5.78;;;2.70;;
82176;SDS011;71758;48.714;9.584;2023-09-18T01:44:06;4.13;;;2.53;;
82176;SDS011;71758;48.714;9.584;2023-09-18T01:46:32;5.80;;;2.80;;
82176;SDS011;71758;48.714;9.584;2023-09-18T01:49:01;9.15;;;3.72;;
82176;SDS011;71758;48.714;9.584;2023-09-18T01:51:27;5.68;;;3.42;;
82176;SDS011;71758;48.714;9.584;2023-09-18T01:53:52;9.07;;;3.33;;
82176;SDS011;71758;48.714;9.584;2023-09-18T01:56:18;6.75;;;3.60;;
82176;SDS011;71758;48.714;9.584;2023-09-18T01:58:43;5.78;;;3.40;;
82176;SDS011;71758;48.714;9.584;2023-09-18T02:01:08;5.78;;;3.45;;
82176;SDS011;71758;48.714;9.584;2023-09-18T02:03:34;7.07;;;3.15;;
82176;SDS011;71758;48.714;9.584;2023-09-18T02:05:59;5.50;;;3.28;;
82176;SDS011;71758;48.714;9.584;2023-09-18T02:08:25;6.10;;;3.58;;
82176;SDS011;71758;48.714;9.584;2023-09-18T02:10:50;6.38;;;3.47;;
82176;SDS011;71758;48.714;9.584;2023-09-18T02:13:15;8.02;;;3.58;;
82176;SDS011;71758;48.714;9.584;2023-09-18T02:15:43;6.95;;;3.70;;
82176;SDS011;71758;48.714;9.584;2023-09-18T02:18:08;14.07;;;3.78;;
82176;SDS011;71758;48.714;9.584;2023-09-18T02:20:39;10.48;;;3.42;;
82176;SDS011;71758;48.714;9.584;2023-09-18T02:23:05;7.50;;;3.58;;
82176;SDS011;71758;48.714;9.584;2023-09-18T02:25:31;5.88;;;3.58;;
82176;SDS011;71758;48.714;9.584;2023-09-18T02:27:56;6.18;;;3.60;;
82176;SDS011;71758;48.714;9.584;2023-09-18T02:30:21;9.18;;;4.22;;
82176;SDS011;71758;48.714;9.584;2023-09-18T02:32:47;7.78;;;4.45;;
82176;SDS011;71758;48.714;9.584;2023-09-18T02:35:12;7.88;;;3.88;;
82176;SDS011;71758;48.714;9.584;2023-09-18T02:37:38;6.00;;;3.60;;
82176;SDS011;71758;48.714;9.584;2023-09-18T02:40:03;6.03;;;3.55;;
82176;SDS011;71758;48.714;9.584;2023-09-18T02:42:30;7.13;;;4.22;;
82176;SDS011;71758;48.714;9.584;2023-09-18T02:44:55;8.05;;;3.83;;
82176;SDS011;71758;48.714;9.584;2023-09-18T02:47:21;6.97;;;3.75;;
82176;SDS011;71758;48.714;9.584;2023-09-18T02:49:46;6.03;;;3.80;;
82176;SDS011;71758;48.714;9.584;2023-09-18T02:52:12;5.75;;;3.05;;
82176;SDS011;71758;48.714;9.584;2023-09-18T02:54:37;5.18;;;3.15;;
82176;SDS011;71758;48.714;9.584;2023-09-18T02:57:02;7.22;;;3.05;;
82176;SDS011;71758;48.714;9.584;2023-09-18T02:59:28;6.22;;;3.28;;
82176;SDS011;71758;48.714;9.584;2023-09-18T03:01:53;7.88;;;3.30;;
82176;SDS011;71758;48.714;9.584;2023-09-18T03:04:21;6.65;;;3.03;;
82176;SDS011;71758;48.714;9.584;2023-09-18T03:06:47;6.88;;;3.20;;
82176;SDS011;71758;48.714;9.584;2023-09-18T03:09:12;6.18;;;3.33;;
82176;SDS011;71758;48.714;9.584;2023-09-18T03:11:37;5.85;;;3.17;;
82176;SDS011;71758;48.714;9.584;2023-09-18T03:14:03;6.03;;;3.03;;
82176;SDS011;71758;48.714;9.584;2023-09-18T03:16:28;8.90;;;3.30;;
82176;SDS011;71758;48.714;9.584;2023-09-18T03:18:56;7.28;;;3.08;;
82176;SDS011;71758;48.714;9.584;2023-09-18T03:21:22;6.18;;;3.25;;
82176;SDS011;71758;48.714;9.584;2023-09-18T03:23:47;6.72;;;3.70;;
82176;SDS011;71758;48.714;9.584;2023-09-18T03:26:12;7.93;;;3.90;;
82176;SDS011;71758;48.714;9.584;2023-09-18T03:28:38;7.85;;;3.72;;
82176;SDS011;71758;48.714;9.584;2023-09-18T03:31:04;7.05;;;4.40;;
82176;SDS011;71758;48.714;9.584;2023-09-18T03:33:30;10.68;;;4.65;;
82176;SDS011;71758;48.714;9.584;2023-09-18T03:35:56;8.07;;;4.70;;
82176;SDS011;71758;48.714;9.584;2023-09-18T03:38:23;7.97;;;4.72;;
82176;SDS011;71758;48.714;9.584;2023-09-18T03:40:49;9.02;;;4.50;;
82176;SDS011;71758;48.714;9.584;2023-09-18T03:43:15;8.18;;;4.03;;
82176;SDS011;71758;48.714;9.584;2023-09-18T03:45:40;6.50;;;4.22;;
82176;SDS011;71758;48.714;9.584;2023-09-18T03:48:06;6.40;;;4.18;;
82176;SDS011;71758;48.714;9.584;2023-09-18T03:50:31;6.10;;;4.05;;
82176;SDS011;71758;48.714;9.584;2023-09-18T03:52:56;7.53;;;4.35;;
82176;SDS011;71758;48.714;9.584;2023-09-18T03:55:22;6.60;;;3.50;;
82176;SDS011;71758;48.714;9.584;2023-09-18T03:57:47;6.88;;;3.60;;
82176;SDS011;71758;48.714;9.584;2023-09-18T04:00:13;6.68;;;3.90;;
82176;SDS011;71758;48.714;9.584;2023-09-18T04:02:39;8.73;;;3.80;;
82176;SDS011;71758;48.714;9.584;2023-09-18T04:05:04;6.30;;;3.75;;
82176;SDS011;71758;48.714;9.584;2023-09-18T04:07:30;7.97;;;3.95;;
82176;SDS011;71758;48.714;9.584;2023-09-18T04:09:56;7.15;;;3.90;;
82176;SDS011;71758;48.714;9.584;2023-09-18T04:12:22;9.90;;;4.47;;
82176;SDS011;71758;48.714;9.584;2023-09-18T04:14:47;6.78;;;3.95;;
82176;SDS011;71758;48.714;9.584;2023-09-18T04:17:12;8.95;;;4.50;;
82176;SDS011;71758;48.714;9.584;2023-09-18T04:19:38;10.45;;;5.32;;
82176;SDS011;71758;48.714;9.584;2023-09-18T04:22:04;9.05;;;4.90;;
82176;SDS011;71758;48.714;9.584;2023-09-18T04:24:29;7.93;;;5.00;;
82176;SDS011;71758;48.714;9.584;2023-09-18T04:26:55;7.60;;;4.45;;
82176;SDS011;71758;48.714;9.584;2023-09-18T04:29:20;10.68;;;4.63;;
82176;SDS011;71758;48.714;9.584;2023-09-18T04:31:46;8.68;;;4.90;;
82176;SDS011;71758;48.714;9.584;2023-09-18T04:34:12;6.90;;;3.90;;
82176;SDS011;71758;48.714;9.584;2023-09-18T04:36:37;8.65;;;3.83;;
82176;SDS011;71758;48.714;9.584;2023-09-18T04:39:03;6.78;;;3.33;;
82176;SDS011;71758;48.714;9.584;2023-09-18T04:41:30;7.82;;;4.10;;
82176;SDS011;71758;48.714;9.584;2023-09-18T04:43:55;8.30;;;3.90;;
82176;SDS011;71758;48.714;9.584;2023-09-18T04:46:21;6.05;;;3.72;;
82176;SDS011;71758;48.714;9.584;2023-09-18T04:48:46;9.00;;;3.65;;
82176;SDS011;71758;48.714;9.584;2023-09-18T04:51:12;6.50;;;3.58;;
82176;SDS011;71758;48.714;9.584;2023-09-18T04:53:37;10.55;;;4.13;;
82176;SDS011;71758;48.714;9.584;2023-09-18T04:56:03;5.82;;;3.20;;
82176;SDS011;71758;48.714;9.584;2023-09-18T04:58:28;7.10;;;3.63;;
82176;SDS011;71758;48.714;9.584;2023-09-18T05:00:55;9.68;;;3.05;;
82176;SDS011;71758;48.714;9.584;2023-09-18T05:03:21;8.65;;;2.92;;
82176;SDS011;71758;48.714;9.584;2023-09-18T05:05:46;6.22;;;2.83;;
82176;SDS011;71758;48.714;9.584;2023-09-18T05:08:11;9.15;;;3.05;;
82176;SDS011;71758;48.714;9.584;2023-09-18T05:10:37;6.78;;;2.95;;
82176;SDS011;71758;48.714;9.584;2023-09-18T05:13:03;7.95;;;2.50;;
82176;SDS011;71758;48.714;9.584;2023-09-18T05:15:28;6.38;;;2.88;;
82176;SDS011;71758;48.714;9.584;2023-09-18T05:17:54;5.95;;;2.53;;
82176;SDS011;71758;48.714;9.584;2023-09-18T05:20:22;6.97;;;2.80;;
82176;SDS011;71758;48.714;9.584;2023-09-18T05:22:53;7.15;;;3.10;;
82176;SDS011;71758;48.714;9.584;2023-09-18T05:25:19;7.15;;;2.50;;
82176;SDS011;71758;48.714;9.584;2023-09-18T05:27:46;6.20;;;2.80;;
82176;SDS011;71758;48.714;9.584;2023-09-18T05:30:18;6.53;;;3.30;;
82176;SDS011;71758;48.714;9.584;2023-09-18T05:32:46;6.03;;;3.20;;
82176;SDS011;71758;48.714;9.584;2023-09-18T05:35:13;6.70;;;2.95;;
82176;SDS011;71758;48.714;9.584;2023-09-18T05:37:38;8.48;;;3.30;;
82176;SDS011;71758;48.714;9.584;2023-09-18T05:40:05;6.43;;;3.15;;
82176;SDS011;71758;48.714;9.584;2023-09-18T05:42:34;7.00;;;2.85;;
82176;SDS011;71758;48.714;9.584;2023-09-18T05:45:00;8.68;;;3.20;;
82176;SDS011;71758;48.714;9.584;2023-09-18T05:47:25;8.25;;;3.40;;
82176;SDS011;71758;48.714;9.584;2023-09-18T05:49:51;7.18;;;3.10;;
82176;SDS011;71758;48.714;9.584;2023-09-18T05:52:16;7.18;;;2.90;;
82176;SDS011;71758;48.714;9.584;2023-09-18T05:54:42;8.90;;;3.22;;
82176;SDS011;71758;48.714;9.584;2023-09-18T05:57:07;9.00;;;3.42;;
82176;SDS011;71758;48.714;9.584;2023-09-18T05:59:32;7.70;;;3.10;;
82176;SDS011;71758;48.714;9.584;2023-09-18T06:01:58;6.13;;;3.00;;
82176;SDS011;71758;48.714;9.584;2023-09-18T06:04:23;11.55;;;3.28;;
82176;SDS011;71758;48.714;9.584;2023-09-18T06:06:49;6.55;;;3.30;;
82176;SDS011;71758;48.714;9.584;2023-09-18T06:09:16;10.32;;;3.33;;
82176;SDS011;71758;48.714;9.584;2023-09-18T06:11:41;8.88;;;3.58;;
82176;SDS011;71758;48.714;9.584;2023-09-18T06:14:07;9.00;;;3.60;;
82176;SDS011;71758;48.714;9.584;2023-09-18T06:16:32;8.10;;;3.10;;
82176;SDS011;71758;48.714;9.584;2023-09-18T06:18:58;9.07;;;3.33;;
82176;SDS011;71758;48.714;9.584;2023-09-18T06:21:25;7.43;;;3.33;;
82176;SDS011;71758;48.714;9.584;2023-09-18T06:23:50;10.30;;;3.30;;
82176;SDS011;71758;48.714;9.584;2023-09-18T06:26:16;7.38;;;3.10;;
82176;SDS011;71758;48.714;9.584;2023-09-18T06:28:42;6.20;;;3.15;;
82176;SDS011;71758;48.714;9.584;2023-09-18T06:31:08;8.18;;;3.17;;
82176;SDS011;71758;48.714;9.584;2023-09-18T06:33:35;8.63;;;3.25;;
82176;SDS011;71758;48.714;9.584;2023-09-18T06:36:01;9.18;;;3.20;;
82176;SDS011;71758;48.714;9.584;2023-09-18T06:38:27;9.27;;;3.30;;
82176;SDS011;71758;48.714;9.584;2023-09-18T06:40:52;7.55;;;2.80;;
82176;SDS011;71758;48.714;9.584;2023-09-18T06:43:18;9.10;;;2.88;;
82176;SDS011;71758;48.714;9.584;2023-09-18T06:45:43;11.38;;;2.90;;
82176;SDS011;71758;48.714;9.584;2023-09-18T06:48:09;6.20;;;2.60;;
82176;SDS011;71758;48.714;9.584;2023-09-18T06:50:34;7.18;;;3.03;;
82176;SDS011;71758;48.714;9.584;2023-09-18T06:53:01;9.32;;;2.67;;
82176;SDS011;71758;48.714;9.584;2023-09-18T06:55:26;9.27;;;2.92;;
82176;SDS011;71758;48.714;9.584;2023-09-18T06:57:52;5.93;;;3.08;;
82176;SDS011;71758;48.714;9.584;2023-09-18T07:00:18;7.68;;;3.10;;
82176;SDS011;71758;48.714;9.584;2023-09-18T07:02:45;8.63;;;3.10;;
82176;SDS011;71758;48.714;9.584;2023-09-18T07:05:11;7.90;;;3.45;;
82176;SDS011;71758;48.714;9.584;2023-09-18T07:07:36;9.38;;;3.30;;
82176;SDS011;71758;48.714;9.584;2023-09-18T07:10:02;9.90;;;3.03;;
82176;SDS011;71758;48.714;9.584;2023-09-18T07:12:27;8.80;;;2.83;;
82176;SDS011;71758;48.714;9.584;2023-09-18T07:14:53;7.20;;;2.85;;
82176;SDS011;71758;48.714;9.584;2023-09-18T07:17:18;9.85;;;2.50;;
82176;SDS011;71758;48.714;9.584;2023-09-18T07:19:44;7.90;;;2.20;;
82176;SDS011;71758;48.714;9.584;2023-09-18T07:22:09;9.38;;;2.30;;
82176;SDS011;71758;48.714;9.584;2023-09-18T07:24:34;6.45;;;2.40;;
82176;SDS011;71758;48.714;9.584;2023-09-18T07:27:00;7.38;;;2.65;;
82176;SDS011;71758;48.714;9.584;2023-09-18T07:29:25;8.23;;;2.70;;
82176;SDS011;71758;48.714;9.584;2023-09-18T07:31:50;10.02;;;2.78;;
82176;SDS011;71758;48.714;9.584;2023-09-18T07:34:16;8.65;;;2.90;;
82176;SDS011;71758;48.714;9.584;2023-09-18T07:36:42;9.70;;;3.22;;
82176;SDS011;71758;48.714;9.584;2023-09-18T07:39:09;8.88;;;3.65;;
82176;SDS011;71758;48.714;9.584;2023-09-18T07:41:36;7.13;;;3.30;;
82176;SDS011;71758;48.714;9.584;2023-09-18T07:44:02;8.85;;;3.05;;
82176;SDS011;71758;48.714;9.584;2023-09-18T07:46:27;9.65;;;2.97;;
82176;SDS011;71758;48.714;9.584;2023-09-18T07:48:53;9.10;;;2.92;;
82176;SDS011;71758;48.714;9.584;2023-09-18T07:51:18;8.45;;;3.10;;
82176;SDS011;71758;48.714;9.584;2023-09-18T07:53:44;11.65;;;3.05;;
82176;SDS011;71758;48.714;9.584;2023-09-18T07:56:09;6.65;;;2.13;;
82176;SDS011;71758;48.714;9.584;2023-09-18T07:58:35;7.68;;;2.50;;
82176;SDS011;71758;48.714;9.584;2023-09-18T08:01:03;10.13;;;2.25;;
82176;SDS011;71758;48.714;9.584;2023-09-18T08:03:30;7.93;;;2.08;;
82176;SDS011;71758;48.714;9.584;2023-09-18T08:05:55;8.43;;;1.98;;
82176;SDS011;71758;48.714;9.584;2023-09-18T08:08:22;10.65;;;1.95;;
82176;SDS011;71758;48.714;9.584;2023-09-18T08:10:48;8.93;;;1.98;;
82176;SDS011;71758;48.714;9.584;2023-09-18T08:13:14;7.45;;;1.50;;
82176;SDS011;71758;48.714;9.584;2023-09-18T08:15:40;8.93;;;1.40;;
82176;SDS011;71758;48.714;9.584;2023-09-18T08:18:05;6.00;;;1.30;;
82176;SDS011;71758;48.714;9.584;2023-09-18T08:20:30;6.72;;;1.30;;
82176;SDS011;71758;48.714;9.584;2023-09-18T08:22:58;8.00;;;1.30;;
82176;SDS011;71758;48.714;9.584;2023-09-18T08:25:26;6.45;;;1.33;;
82176;SDS011;71758;48.714;9.584;2023-09-18T08:27:51;6.15;;;1.30;;
82176;SDS011;71758;48.714;9.584;2023-09-18T08:30:17;5.63;;;1.38;;
82176;SDS011;71758;48.714;9.584;2023-09-18T08:32:45;4.68;;;1.00;;
82176;SDS011;71758;48.714;9.584;2023-09-18T08:35:11;11.55;;;1.33;;
82176;SDS011;71758;48.714;9.584;2023-09-18T08:37:36;8.85;;;1.10;;
82176;SDS011;71758;48.714;9.584;2023-09-18T08:40:02;8.75;;;1.30;;
82176;SDS011;71758;48.714;9.584;2023-09-18T08:42:34;7.82;;;1.10;;
82176;SDS011;71758;48.714;9.584;2023-09-18T08:45:01;7.40;;;1.20;;
82176;SDS011;71758;48.714;9.584;2023-09-18T08:47:27;6.13;;;1.20;;
82176;SDS011;71758;48.714;9.584;2023-09-18T08:49:52;9.25;;;1.48;;
82176;SDS011;71758;48.714;9.584;2023-09-18T08:52:19;4.85;;;1.35;;
82176;SDS011;71758;48.714;9.584;2023-09-18T08:54:45;7.82;;;1.08;;
82176;SDS011;71758;48.714;9.584;2023-09-18T08:57:11;8.23;;;0.90;;
82176;SDS011;71758;48.714;9.584;2023-09-18T08:59:36;7.47;;;1.17;;
82176;SDS011;71758;48.714;9.584;2023-09-18T09:02:02;7.22;;;0.93;;
82176;SDS011;71758;48.714;9.584;2023-09-18T09:04:28;4.15;;;0.82;;
82176;SDS011;71758;48.714;9.584;2023-09-18T09:06:53;6.40;;;0.95;;
82176;SDS011;71758;48.714;9.584;2023-09-18T09:09:22;4.43;;;0.80;;
82176;SDS011;71758;48.714;9.584;2023-09-18T09:11:57;5.70;;;0.70;;
82176;SDS011;71758;48.714;9.584;2023-09-18T09:14:22;6.85;;;1.13;;
82176;SDS011;71758;48.714;9.584;2023-09-18T09:16:53;5.70;;;1.10;;
82176;SDS011;71758;48.714;9.584;2023-09-18T09:19:27;3.88;;;0.85;;
82176;SDS011;71758;48.714;9.584;2023-09-18T09:21:56;4.45;;;0.90;;
82176;SDS011;71758;48.714;9.584;2023-09-18T09:24:35;4.45;;;0.90;;
82176;SDS011;71758;48.714;9.584;2023-09-18T09:27:09;5.38;;;1.02;;
82176;SDS011;71758;48.714;9.584;2023-09-18T09:29:35;6.07;;;1.02;;
82176;SDS011;71758;48.714;9.584;2023-09-18T09:32:16;6.68;;;1.00;;
82176;SDS011;71758;48.714;9.584;2023-09-18T09:34:43;4.75;;;1.00;;
82176;SDS011;71758;48.714;9.584;2023-09-18T09:37:09;6.35;;;1.30;;
82176;SDS011;71758;48.714;9.584;2023-09-18T09:39:45;2.95;;;0.93;;
82176;SDS011;71758;48.714;9.584;2023-09-18T09:42:18;5.22;;;1.27;;
82176;SDS011;71758;48.714;9.584;2023-09-18T09:45:02;4.85;;;1.20;;
82176;SDS011;71758;48.714;9.584;2023-09-18T09:47:35;3.10;;;0.90;;
82176;SDS011;71758;48.714;9.584;2023-09-18T09:50:08;6.15;;;0.95;;
82176;SDS011;71758;48.714;9.584;2023-09-18T09:52:42;6.30;;;1.33;;
82176;SDS011;71758;48.714;9.584;2023-09-18T09:55:30;4.80;;;1.42;;
82176;SDS011;71758;48.714;9.584;2023-09-18T09:58:05;5.82;;;1.30;;
82176;SDS011;71758;48.714;9.584;2023-09-18T10:00:36;6.20;;;1.25;;
82176;SDS011;71758;48.714;9.584;2023-09-18T10:03:11;4.53;;;1.10;;
82176;SDS011;71758;48.714;9.584;2023-09-18T10:05:38;4.85;;;1.17;;
82176;SDS011;71758;48.714;9.584;2023-09-18T10:10:34;5.93;;;1.35;;
82176;SDS011;71758;48.714;9.584;2023-09-18T10:16:04;6.15;;;1.42;;
82176;SDS011;71758;48.714;9.584;2023-09-18T10:26:48;5.78;;;1.20;;
82176;SDS011;71758;48.714;9.584;2023-09-18T10:29:17;6.15;;;1.65;;
82176;SDS011;71758;48.714;9.584;2023-09-18T10:31:43;4.82;;;1.20;;
82176;SDS011;71758;48.714;9.584;2023-09-18T10:34:09;4.82;;;1.15;;
82176;SDS011;71758;48.714;9.584;2023-09-18T10:36:36;5.57;;;1.30;;
82176;SDS011;71758;48.714;9.584;2023-09-18T10:39:02;6.35;;;1.33;;
82176;SDS011;71758;48.714;9.584;2023-09-18T10:41:33;3.42;;;1.20;;
82176;SDS011;71758;48.714;9.584;2023-09-18T10:43:58;4.07;;;1.35;;
82176;SDS011;71758;48.714;9.584;2023-09-18T10:46:25;8.23;;;1.40;;
82176;SDS011;71758;48.714;9.584;2023-09-18T10:48:50;7.28;;;1.50;;
82176;SDS011;71758;48.714;9.584;2023-09-18T10:51:19;5.45;;;1.50;;
82176;SDS011;71758;48.714;9.584;2023-09-18T10:53:48;7.05;;;1.52;;
82176;SDS011;71758;48.714;9.584;2023-09-18T10:56:17;5.60;;;1.45;;
82176;SDS011;71758;48.714;9.584;2023-09-18T10:58:42;7.07;;;1.40;;
82176;SDS011;71758;48.714;9.584;2023-09-18T11:01:10;4.72;;;1.35;;
82176;SDS011;71758;48.714;9.584;2023-09-18T11:03:37;6.30;;;1.15;;
82176;SDS011;71758;48.714;9.584;2023-09-18T11:06:03;4.85;;;1.13;;
82176;SDS011;71758;48.714;9.584;2023-09-18T11:08:33;4.25;;;1.10;;
82176;SDS011;71758;48.714;9.584;2023-09-18T11:13:44;3.90;;;1.20;;
82176;SDS011;71758;48.714;9.584;2023-09-18T11:18:40;4.25;;;1.17;;
82176;SDS011;71758;48.714;9.584;2023-09-18T11:21:09;7.18;;;1.42;;
82176;SDS011;71758;48.714;9.584;2023-09-18T11:23:36;7.25;;;1.30;;
82176;SDS011;71758;48.714;9.584;2023-09-18T11:26:08;4.88;;;1.30;;
82176;SDS011;71758;48.714;9.584;2023-09-18T11:28:35;5.13;;;1.00;;
82176;SDS011;71758;48.714;9.584;2023-09-18T11:31:02;10.23;;;1.30;;
82176;SDS011;71758;48.714;9.584;2023-09-18T11:36:04;4.88;;;1.10;;
82176;SDS011;71758;48.714;9.584;2023-09-18T11:38:50;4.43;;;1.33;;
82176;SDS011;71758;48.714;9.584;2023-09-18T11:41:19;4.68;;;1.38;;
82176;SDS011;71758;48.714;9.584;2023-09-18T11:43:47;4.75;;;0.93;;
82176;SDS011;71758;48.714;9.584;2023-09-18T11:46:13;4.18;;;1.02;;
82176;SDS011;71758;48.714;9.584;2023-09-18T11:48:43;5.32;;;1.40;;
82176;SDS011;71758;48.714;9.584;2023-09-18T11:51:08;5.28;;;1.60;;
82176;SDS011;71758;48.714;9.584;2023-09-18T11:53:36;5.43;;;1.40;;
82176;SDS011;71758;48.714;9.584;2023-09-18T11:56:04;6.45;;;1.55;;
82176;SDS011;71758;48.714;9.584;2023-09-18T12:01:14;7.13;;;1.30;;
82176;SDS011;71758;48.714;9.584;2023-09-18T12:03:40;3.42;;;0.90;;
82176;SDS011;71758;48.714;9.584;2023-09-18T12:06:06;5.15;;;0.70;;
82176;SDS011;71758;48.714;9.584;2023-09-18T12:08:34;2.95;;;0.88;;
82176;SDS011;71758;48.714;9.584;2023-09-18T12:11:01;3.97;;;0.90;;
82176;SDS011;71758;48.714;9.584;2023-09-18T12:13:30;18.40;;;2.05;;
82176;SDS011;71758;48.714;9.584;2023-09-18T12:16:05;3.72;;;0.90;;
82176;SDS011;71758;48.714;9.584;2023-09-18T12:18:33;3.15;;;0.77;;
82176;SDS011;71758;48.714;9.584;2023-09-18T12:21:05;6.00;;;1.55;;
82176;SDS011;71758;48.714;9.584;2023-09-18T12:23:36;9.27;;;1.35;;
82176;SDS011;71758;48.714;9.584;2023-09-18T12:26:03;6.43;;;1.10;;
82176;SDS011;71758;48.714;9.584;2023-09-18T12:28:31;6.15;;;1.10;;
82176;SDS011;71758;48.714;9.584;2023-09-18T12:30:56;6.30;;;1.10;;
82176;SDS011;71758;48.714;9.584;2023-09-18T12:33:23;4.50;;;0.90;;
82176;SDS011;71758;48.714;9.584;2023-09-18T12:35:52;5.07;;;1.10;;
82176;SDS011;71758;48.714;9.584;2023-09-18T12:38:20;6.10;;;1.30;;
82176;SDS011;71758;48.714;9.584;2023-09-18T12:40:49;4.00;;;0.90;;
82176;SDS011;71758;48.714;9.584;2023-09-18T12:43:15;4.25;;;0.80;;
82176;SDS011;71758;48.714;9.584;2023-09-18T12:45:41;4.22;;;1.00;;
82176;SDS011;71758;48.714;9.584;2023-09-18T12:48:07;4.25;;;1.13;;
82176;SDS011;71758;48.714;9.584;2023-09-18T12:50:33;3.83;;;1.20;;
82176;SDS011;71758;48.714;9.584;2023-09-18T12:53:10;2.90;;;0.80;;
82176;SDS011;71758;48.714;9.584;2023-09-18T12:55:37;4.97;;;0.95;;
82176;SDS011;71758;48.714;9.584;2023-09-18T12:58:04;4.00;;;0.88;;
82176;SDS011;71758;48.714;9.584;2023-09-18T13:00:33;5.30;;;1.00;;
82176;SDS011;71758;48.714;9.584;2023-09-18T13:02:58;3.42;;;0.90;;
82176;SDS011;71758;48.714;9.584;2023-09-18T13:05:24;2.97;;;0.70;;
82176;SDS011;71758;48.714;9.584;2023-09-18T13:08:00;5.35;;;0.70;;
82176;SDS011;71758;48.714;9.584;2023-09-18T13:10:27;3.20;;;0.85;;
82176;SDS011;71758;48.714;9.584;2023-09-18T13:12:53;3.72;;;0.80;;
82176;SDS011;71758;48.714;9.584;2023-09-18T13:15:30;5.28;;;0.90;;
82176;SDS011;71758;48.714;9.584;2023-09-18T13:17:58;4.95;;;1.00;;
82176;SDS011;71758;48.714;9.584;2023-09-18T13:20:26;2.58;;;0.70;;
82176;SDS011;71758;48.714;9.584;2023-09-18T13:22:57;3.85;;;0.85;;
82176;SDS011;71758;48.714;9.584;2023-09-18T13:25:24;5.22;;;0.90;;
82176;SDS011;71758;48.714;9.584;2023-09-18T13:28:12;4.38;;;0.80;;
82176;SDS011;71758;48.714;9.584;2023-09-18T13:30:39;3.47;;;0.70;;
82176;SDS011;71758;48.714;9.584;2023-09-18T13:33:24;3.13;;;0.85;;
82176;SDS011;71758;48.714;9.584;2023-09-18T13:35:50;3.55;;;0.75;;
82176;SDS011;71758;48.714;9.584;2023-09-18T13:38:18;3.08;;;1.00;;
82176;SDS011;71758;48.714;9.584;2023-09-18T13:40:44;2.92;;;0.70;;
82176;SDS011;71758;48.714;9.584;2023-09-18T13:43:11;4.40;;;0.80;;
82176;SDS011;71758;48.714;9.584;2023-09-18T13:45:40;3.55;;;0.80;;
82176;SDS011;71758;48.714;9.584;2023-09-18T13:48:06;2.53;;;0.60;;
82176;SDS011;71758;48.714;9.584;2023-09-18T13:50:36;3.88;;;0.80;;
82176;SDS011;71758;48.714;9.584;2023-09-18T13:53:02;4.18;;;0.93;;
82176;SDS011;71758;48.714;9.584;2023-09-18T13:55:31;3.78;;;0.85;;
82176;SDS011;71758;48.714;9.584;2023-09-18T13:57:57;10.43;;;1.35;;
82176;SDS011;71758;48.714;9.584;2023-09-18T14:00:22;5.40;;;0.73;;
82176;SDS011;71758;48.714;9.584;2023-09-18T14:02:48;4.90;;;1.00;;
82176;SDS011;71758;48.714;9.584;2023-09-18T14:05:13;3.13;;;0.80;;
82176;SDS011;71758;48.714;9.584;2023-09-18T14:07:40;4.18;;;0.75;;
82176;SDS011;71758;48.714;9.584;2023-09-18T14:10:09;4.18;;;0.82;;
82176;SDS011;71758;48.714;9.584;2023-09-18T14:12:36;4.13;;;0.90;;
82176;SDS011;71758;48.714;9.584;2023-09-18T14:15:03;3.42;;;0.80;;
82176;SDS011;71758;48.714;9.584;2023-09-18T14:17:30;3.53;;;0.82;;
82176;SDS011;71758;48.714;9.584;2023-09-18T14:19:55;2.53;;;0.75;;
82176;SDS011;71758;48.714;9.584;2023-09-18T14:22:21;3.97;;;1.00;;
82176;SDS011;71758;48.714;9.584;2023-09-18T14:24:46;2.95;;;0.70;;
82176;SDS011;71758;48.714;9.584;2023-09-18T14:27:12;3.90;;;0.80;;
82176;SDS011;71758;48.714;9.584;2023-09-18T14:29:38;3.75;;;0.70;;
82176;SDS011;71758;48.714;9.584;2023-09-18T14:32:03;4.53;;;1.00;;
82176;SDS011;71758;48.714;9.584;2023-09-18T14:34:30;4.63;;;1.20;;
82176;SDS011;71758;48.714;9.584;2023-09-18T14:36:56;4.03;;;0.88;;
82176;SDS011;71758;48.714;9.584;2023-09-18T14:39:22;4.60;;;0.80;;
82176;SDS011;71758;48.714;9.584;2023-09-18T14:41:47;2.70;;;0.80;;
82176;SDS011;71758;48.714;9.584;2023-09-18T14:44:13;2.90;;;0.80;;
82176;SDS011;71758;48.714;9.584;2023-09-18T14:46:38;3.58;;;0.93;;
82176;SDS011;71758;48.714;9.584;2023-09-18T14:49:04;3.30;;;0.70;;
82176;SDS011;71758;48.714;9.584;2023-09-18T14:51:30;2.92;;;0.60;;
82176;SDS011;71758;48.714;9.584;2023-09-18T14:53:56;3.78;;;1.00;;
82176;SDS011;71758;48.714;9.584;2023-09-18T14:56:22;3.08;;;0.80;;
82176;SDS011;71758;48.714;9.584;2023-09-18T14:58:48;3.45;;;0.98;;
82176;SDS011;71758;48.714;9.584;2023-09-18T15:01:16;2.92;;;0.80;;
82176;SDS011;71758;48.714;9.584;2023-09-18T15:03:41;3.72;;;1.00;;
82176;SDS011;71758;48.714;9.584;2023-09-18T15:06:07;3.50;;;1.00;;
82176;SDS011;71758;48.714;9.584;2023-09-18T15:08:35;3.40;;;0.70;;
82176;SDS011;71758;48.714;9.584;2023-09-18T15:11:01;4.03;;;0.95;;